Time;durP1;ratioP1;P1;durP2;ratioP2;P2;SDS_P1;SDS_P2;PMS_P1;PMS_P2;Temp;Humidity;BMP_temperature;BMP_pressure;BME280_temperature;BME280_humidity;BME280_pressure;Samples;Min_cycle;Max_cycle;Signal;HPM_P1;HPM_P2
2022/02/27 00:00:57;;;;;;;6.20;3.30;;;1.00;99.90;;;;;;6135079;23;20157;-85
2022/02/27 00:03:23;;;;;;;6.80;3.63;;;1.10;99.90;;;;;;6135212;23;20685;-85
2022/02/27 00:05:49;;;;;;;4.70;3.53;;;1.10;99.90;;;;;;6131946;23;20153;-84
2022/02/27 00:08:14;;;;;;;7.93;3.10;;;1.00;99.90;;;;;;6133685;23;20157;-85
2022/02/27 00:10:40;;;;;;;7.33;3.00;;;0.90;99.90;;;;;;6131715;23;20152;-85
2022/02/27 00:13:05;;;;;;;7.20;3.70;;;0.90;99.90;;;;;;6131249;23;20184;-84
2022/02/27 00:15:31;;;;;;;4.60;2.90;;;0.90;99.90;;;;;;6131955;23;20487;-84
2022/02/27 00:17:56;;;;;;;4.07;2.93;;;0.80;99.90;;;;;;6133480;23;20160;-85
2022/02/27 00:20:22;;;;;;;4.47;2.77;;;0.90;99.90;;;;;;6132129;23;20181;-84
2022/02/27 00:22:47;;;;;;;7.27;2.93;;;1.00;99.90;;;;;;6132747;23;20153;-84
2022/02/27 00:25:14;;;;;;;4.70;2.87;;;0.90;99.90;;;;;;6131033;23;20164;-85
2022/02/27 00:27:40;;;;;;;5.67;2.87;;;0.90;99.90;;;;;;6132598;23;20188;-84
2022/02/27 00:30:07;;;;;;;7.67;3.33;;;1.00;99.90;;;;;;6130416;23;20475;-85
2022/02/27 00:32:33;;;;;;;6.20;3.03;;;1.00;99.90;;;;;;6132888;23;20180;-85
2022/02/27 00:34:58;;;;;;;10.50;3.10;;;1.00;99.90;;;;;;6130852;23;20407;-85
2022/02/27 00:37:24;;;;;;;3.57;2.63;;;1.10;99.90;;;;;;6131799;23;20209;-85
2022/02/27 00:39:50;;;;;;;7.20;3.30;;;1.20;99.90;;;;;;6132859;23;20273;-85
2022/02/27 00:42:15;;;;;;;7.70;3.10;;;1.10;99.90;;;;;;6131505;23;20396;-84
2022/02/27 00:44:41;;;;;;;6.77;2.63;;;1.10;99.90;;;;;;6132714;23;20168;-84
2022/02/27 00:47:07;;;;;;;7.60;3.40;;;1.20;99.90;;;;;;6132111;23;20156;-84
2022/02/27 00:49:33;;;;;;;4.50;2.87;;;1.10;99.90;;;;;;6131903;23;20160;-84
2022/02/27 00:51:59;;;;;;;14.60;3.13;;;1.00;99.90;;;;;;6132902;23;20791;-84
2022/02/27 00:54:24;;;;;;;5.43;2.77;;;1.00;99.90;;;;;;6131305;23;20520;-84
2022/02/27 00:56:50;;;;;;;6.10;3.17;;;1.00;99.90;;;;;;6132183;23;20543;-84
2022/02/27 00:59:15;;;;;;;6.43;3.40;;;1.10;99.90;;;;;;6131876;23;20606;-84
2022/02/27 01:01:41;;;;;;;8.80;3.00;;;1.10;99.90;;;;;;6131541;23;20168;-84
2022/02/27 01:04:06;;;;;;;5.83;3.00;;;1.10;99.90;;;;;;6131237;23;20167;-85
2022/02/27 01:06:32;;;;;;;8.63;3.57;;;1.00;99.90;;;;;;6132732;23;20161;-85
2022/02/27 01:08:59;;;;;;;8.23;3.97;;;1.00;99.90;;;;;;6129725;23;20663;-85
2022/02/27 01:11:26;;;;;;;6.90;3.90;;;0.90;99.90;;;;;;6132824;23;20157;-85
2022/02/27 01:13:52;;;;;;;7.40;3.53;;;1.00;99.90;;;;;;6131196;23;20448;-85
2022/02/27 01:16:18;;;;;;;5.80;3.27;;;0.90;99.90;;;;;;6131356;23;20474;-85
2022/02/27 01:18:43;;;;;;;6.37;3.33;;;0.90;99.90;;;;;;6128773;23;20960;-84
2022/02/27 01:21:09;;;;;;;8.43;3.50;;;0.90;99.90;;;;;;6130509;23;20259;-85
2022/02/27 01:23:35;;;;;;;6.43;3.50;;;0.90;99.90;;;;;;6130553;23;20198;-84
2022/02/27 01:26:00;;;;;;;5.73;3.07;;;0.80;99.90;;;;;;6126797;23;20881;-85
2022/02/27 01:28:28;;;;;;;8.23;3.20;;;0.80;99.90;;;;;;6130603;23;20161;-85
2022/02/27 01:30:54;;;;;;;7.80;3.20;;;0.80;99.90;;;;;;6129985;23;20240;-84
2022/02/27 01:33:19;;;;;;;6.27;3.47;;;0.80;99.90;;;;;;6131435;23;20520;-84
2022/02/27 01:35:45;;;;;;;6.73;3.63;;;0.80;99.90;;;;;;6129879;23;20702;-85
2022/02/27 01:38:11;;;;;;;5.43;3.53;;;0.90;99.90;;;;;;6130054;23;20160;-84
2022/02/27 01:40:38;;;;;;;7.83;3.17;;;1.00;99.90;;;;;;6130961;23;20190;-85
2022/02/27 01:43:04;;;;;;;7.27;3.40;;;0.90;99.90;;;;;;6131812;23;20206;-85
2022/02/27 01:45:29;;;;;;;5.80;3.40;;;0.90;99.90;;;;;;6129598;23;20391;-84
2022/02/27 01:47:55;;;;;;;4.83;2.67;;;1.00;99.90;;;;;;6131120;23;20602;-85
2022/02/27 01:50:21;;;;;;;5.77;3.10;;;1.00;99.90;;;;;;6129265;23;20168;-84
2022/02/27 01:52:46;;;;;;;9.77;3.30;;;1.00;99.90;;;;;;6130277;23;20514;-85
2022/02/27 01:55:12;;;;;;;6.70;3.17;;;1.00;99.90;;;;;;6130741;23;20557;-84
2022/02/27 01:57:37;;;;;;;5.03;3.40;;;0.90;99.90;;;;;;6130275;23;20602;-84
2022/02/27 02:00:06;;;;;;;4.67;2.77;;;0.90;99.90;;;;;;6130595;23;20235;-84
2022/02/27 02:02:32;;;;;;;3.67;2.87;;;0.90;99.90;;;;;;6130707;23;20368;-84
2022/02/27 02:04:57;;;;;;;5.53;3.50;;;0.80;99.90;;;;;;6129157;23;20886;-84
2022/02/27 02:07:23;;;;;;;8.17;2.70;;;0.80;99.90;;;;;;6131317;23;20188;-84
2022/02/27 02:09:49;;;;;;;7.07;3.60;;;0.70;99.90;;;;;;6130187;23;20395;-84
2022/02/27 02:12:15;;;;;;;9.43;2.90;;;0.80;99.90;;;;;;6130824;23;20171;-84
2022/02/27 02:14:41;;;;;;;6.33;3.00;;;0.80;99.90;;;;;;6130843;23;21060;-85
2022/02/27 02:17:06;;;;;;;11.17;2.93;;;0.80;99.90;;;;;;6131204;23;20519;-84
2022/02/27 02:19:32;;;;;;;8.20;3.17;;;0.90;99.90;;;;;;6130027;23;20419;-84
2022/02/27 02:21:59;;;;;;;6.70;2.93;;;0.80;99.90;;;;;;6128485;23;20444;-84
2022/02/27 02:24:25;;;;;;;5.67;2.83;;;0.70;99.90;;;;;;6130250;23;20160;-84
2022/02/27 02:26:51;;;;;;;5.03;2.87;;;0.60;99.90;;;;;;6130591;23;20426;-85
2022/02/27 02:29:20;;;;;;;6.27;3.30;;;0.50;99.90;;;;;;6130182;23;20474;-84
2022/02/27 02:31:48;;;;;;;7.70;3.40;;;0.50;99.90;;;;;;6132708;23;20566;-85
2022/02/27 02:34:16;;;;;;;8.60;3.30;;;0.40;99.90;;;;;;6129459;23;20526;-85
2022/02/27 02:36:49;;;;;;;7.40;3.60;;;0.40;99.90;;;;;;6129768;23;20379;-85
2022/02/27 02:39:24;;;;;;;6.10;2.90;;;0.40;99.90;;;;;;6157477;23;20406;-84
2022/02/27 02:41:50;;;;;;;5.90;3.47;;;0.40;99.90;;;;;;6136385;23;20922;-85
2022/02/27 02:44:16;;;;;;;4.90;3.53;;;0.30;99.90;;;;;;6133941;23;20380;-85
2022/02/27 02:46:42;;;;;;;6.93;3.30;;;0.30;99.90;;;;;;6130905;23;20690;-84
2022/02/27 02:49:09;;;;;;;5.20;3.07;;;0.30;99.90;;;;;;6131728;23;20558;-84
2022/02/27 02:51:35;;;;;;;4.73;2.83;;;0.20;99.90;;;;;;6130094;23;20395;-84
2022/02/27 02:54:01;;;;;;;6.70;3.20;;;0.10;99.90;;;;;;6130136;23;20439;-84
2022/02/27 02:56:26;;;;;;;7.60;2.93;;;0.20;99.90;;;;;;6131782;23;20383;-84
2022/02/27 02:58:52;;;;;;;7.77;3.00;;;0.10;99.90;;;;;;6131295;23;20933;-85
2022/02/27 03:01:20;;;;;;;5.73;3.10;;;1.50;99.90;;;;;;6129603;23;20503;-85
2022/02/27 03:03:47;;;;;;;7.03;3.73;;;0.20;99.90;;;;;;6130313;23;20525;-84
2022/02/27 03:06:13;;;;;;;4.40;3.07;;;0.20;99.90;;;;;;6130232;23;20714;-84
2022/02/27 03:08:44;;;;;;;6.80;3.37;;;0.20;99.90;;;;;;6131603;23;20399;-85
2022/02/27 03:11:09;;;;;;;10.87;3.33;;;0.10;99.90;;;;;;6131330;23;20446;-85
2022/02/27 03:13:36;;;;;;;6.87;3.70;;;0.10;99.90;;;;;;6130396;23;20801;-85
2022/02/27 03:16:02;;;;;;;9.43;3.23;;;0.10;99.90;;;;;;6130825;23;20479;-84
2022/02/27 03:18:28;;;;;;;4.93;3.53;;;0.10;99.90;;;;;;6129508;23;20895;-85
2022/02/27 03:20:54;;;;;;;3.70;3.27;;;0.10;99.90;;;;;;6130994;23;20539;-84
2022/02/27 03:23:19;;;;;;;4.80;3.23;;;0.00;99.90;;;;;;6131033;23;20438;-84
2022/02/27 03:25:45;;;;;;;5.10;3.17;;;0.00;99.90;;;;;;6132557;23;20792;-85
2022/02/27 03:28:10;;;;;;;7.60;3.00;;;0.00;99.90;;;;;;6137352;23;20530;-84
2022/02/27 03:30:38;;;;;;;4.23;3.27;;;0.10;99.90;;;;;;6129773;23;20168;-84
2022/02/27 03:33:07;;;;;;;5.30;3.40;;;0.30;99.90;;;;;;6130029;23;20267;-85
2022/02/27 03:35:34;;;;;;;8.23;3.20;;;0.30;99.90;;;;;;6129491;23;20710;-85
2022/02/27 03:37:59;;;;;;;10.60;3.43;;;0.40;99.90;;;;;;6130448;23;20759;-85
2022/02/27 03:40:25;;;;;;;4.40;3.07;;;0.40;99.90;;;;;;6131108;23;20391;-85
2022/02/27 03:42:51;;;;;;;5.40;3.37;;;0.30;99.90;;;;;;6130228;23;20583;-85
2022/02/27 03:45:17;;;;;;;6.30;3.33;;;0.30;99.90;;;;;;6136174;23;20167;-85
2022/02/27 03:47:42;;;;;;;5.87;3.27;;;0.30;99.90;;;;;;6138981;23;20395;-85
2022/02/27 03:50:13;;;;;;;9.10;3.87;;;0.20;99.90;;;;;;6129453;23;20291;-85
2022/02/27 03:52:39;;;;;;;5.37;3.30;;;0.20;99.90;;;;;;6157212;23;20490;-85
2022/02/27 03:55:07;;;;;;;4.40;3.53;;;0.30;99.90;;;;;;6127421;23;20392;-85
2022/02/27 03:57:32;;;;;;;7.87;3.03;;;0.30;99.90;;;;;;6129917;23;20450;-85
2022/02/27 03:59:58;;;;;;;4.83;3.10;;;0.40;99.90;;;;;;6128329;23;20396;-84
2022/02/27 04:02:24;;;;;;;4.50;3.10;;;0.30;99.90;;;;;;6130388;23;20217;-85
2022/02/27 04:04:50;;;;;;;14.03;4.23;;;0.30;99.90;;;;;;6127621;23;20271;-85
2022/02/27 04:07:16;;;;;;;7.03;3.53;;;0.20;99.90;;;;;;6131742;23;20243;-85
2022/02/27 04:09:42;;;;;;;4.50;3.13;;;0.20;99.90;;;;;;6128932;23;20664;-85
2022/02/27 04:12:08;;;;;;;9.20;3.50;;;0.20;99.90;;;;;;6129244;23;20881;-84
2022/02/27 04:14:43;;;;;;;5.30;3.10;;;0.30;99.90;;;;;;6129232;23;20939;-84
2022/02/27 04:17:08;;;;;;;6.87;3.50;;;0.40;99.90;;;;;;6132254;23;20406;-84
2022/02/27 04:19:36;;;;;;;5.00;3.60;;;0.40;99.90;;;;;;6128636;23;20423;-84
2022/02/27 04:22:02;;;;;;;6.70;3.50;;;0.40;99.90;;;;;;6132991;23;20492;-85
2022/02/27 04:24:28;;;;;;;6.60;3.00;;;0.30;99.90;;;;;;6132876;23;21067;-84
2022/02/27 04:26:53;;;;;;;7.13;4.57;;;0.30;99.90;;;;;;6130451;23;20395;-85
2022/02/27 04:29:19;;;;;;;10.20;5.33;;;0.10;99.90;;;;;;6129790;23;20682;-86
2022/02/27 04:31:45;;;;;;;8.77;4.20;;;0.00;99.90;;;;;;6132768;23;20164;-85
2022/02/27 04:34:11;;;;;;;6.00;3.60;;;-0.10;99.90;;;;;;6129644;23;20887;-85
2022/02/27 04:36:36;;;;;;;13.20;4.43;;;-0.20;99.90;;;;;;6132846;23;20161;-84
2022/02/27 04:39:03;;;;;;;8.83;4.00;;;-0.40;99.90;;;;;;6133195;23;20555;-84
2022/02/27 04:41:29;;;;;;;8.27;4.00;;;-0.40;99.90;;;;;;6132171;23;20211;-84
2022/02/27 04:43:55;;;;;;;8.13;4.97;;;-0.20;99.90;;;;;;6130645;23;20434;-84
2022/02/27 04:46:25;;;;;;;9.90;4.43;;;-0.30;99.90;;;;;;6132453;23;20168;-86
2022/02/27 04:48:54;;;;;;;8.63;4.63;;;-0.30;99.90;;;;;;6130799;23;20160;-87
2022/02/27 04:51:30;;;;;;;7.37;3.80;;;-0.40;99.90;;;;;;6132494;23;20386;-86
2022/02/27 04:53:55;;;;;;;8.63;4.27;;;-0.40;99.90;;;;;;6131336;23;20192;-87
2022/02/27 04:56:24;;;;;;;6.30;4.20;;;-0.40;99.90;;;;;;6129872;23;20388;-86
2022/02/27 04:58:49;;;;;;;6.37;4.30;;;-0.30;99.90;;;;;;6132472;23;20399;-85
2022/02/27 05:01:15;;;;;;;9.53;4.10;;;-0.30;99.90;;;;;;6131906;23;20160;-87
2022/02/27 05:03:40;;;;;;;5.43;3.80;;;-0.30;99.90;;;;;;6131652;23;20172;-86
2022/02/27 05:06:06;;;;;;;8.97;5.30;;;-0.40;99.90;;;;;;6132595;23;20242;-86
2022/02/27 05:08:31;;;;;;;6.87;3.80;;;-0.40;99.90;;;;;;6131831;23;20176;-86
2022/02/27 05:10:57;;;;;;;8.60;5.00;;;-0.40;99.90;;;;;;6132521;23;20311;-86
2022/02/27 05:13:22;;;;;;;9.60;5.07;;;-0.40;99.90;;;;;;6131651;23;20301;-86
2022/02/27 05:15:48;;;;;;;9.10;4.70;;;-0.40;99.90;;;;;;6131583;23;20694;-86
2022/02/27 05:18:13;;;;;;;11.30;5.13;;;-0.50;99.90;;;;;;6130382;23;20160;-86
2022/02/27 05:20:39;;;;;;;8.67;4.70;;;-0.50;99.90;;;;;;6132425;23;20538;-86
2022/02/27 05:23:05;;;;;;;10.53;5.17;;;-0.50;99.90;;;;;;6130370;23;20184;-86
2022/02/27 05:25:30;;;;;;;10.73;5.10;;;-0.60;99.90;;;;;;6131296;23;20904;-86
2022/02/27 05:27:56;;;;;;;11.43;5.13;;;-0.50;99.90;;;;;;6131683;23;20160;-86
2022/02/27 05:30:24;;;;;;;10.30;5.23;;;-0.50;99.90;;;;;;6127845;23;20218;-86
2022/02/27 05:32:50;;;;;;;10.13;4.47;;;-0.50;99.90;;;;;;6131393;23;20184;-87
2022/02/27 05:35:16;;;;;;;10.00;4.90;;;-0.50;99.90;;;;;;6131011;23;20399;-87
2022/02/27 05:37:41;;;;;;;7.57;4.67;;;-0.50;99.90;;;;;;6130896;23;20386;-86
2022/02/27 05:40:08;;;;;;;12.97;6.07;;;-0.50;99.90;;;;;;6131762;23;20475;-87
2022/02/27 05:42:34;;;;;;;9.50;5.20;;;-0.50;99.90;;;;;;6129546;23;20152;-88
2022/02/27 05:45:00;;;;;;;7.97;5.00;;;-0.60;99.90;;;;;;6133448;23;20675;-88
2022/02/27 05:47:26;;;;;;;8.03;5.20;;;-0.50;99.90;;;;;;6142440;23;20384;-87
2022/02/27 05:49:51;;;;;;;7.50;5.30;;;-0.50;99.90;;;;;;6137397;23;20399;-87
2022/02/27 05:52:18;;;;;;;10.63;5.30;;;-0.50;99.90;;;;;;6132370;23;20263;-87
2022/02/27 05:54:44;;;;;;;6.77;4.90;;;-0.40;99.90;;;;;;6131405;23;20275;-86
2022/02/27 05:57:10;;;;;;;7.73;5.70;;;-0.40;99.90;;;;;;6129613;23;20507;-87
2022/02/27 05:59:35;;;;;;;10.93;5.77;;;-0.40;99.90;;;;;;6129065;23;20450;-87
2022/02/27 06:02:01;;;;;;;8.17;5.27;;;-0.40;99.90;;;;;;6131707;23;20157;-87
2022/02/27 06:04:27;;;;;;;6.60;5.03;;;-0.40;99.90;;;;;;6128323;23;20499;-87
2022/02/27 06:06:56;;;;;;;8.83;5.70;;;-0.40;99.90;;;;;;6131773;23;20661;-87
2022/02/27 06:09:24;;;;;;;11.40;4.80;;;-0.50;99.90;;;;;;6130524;23;20400;-87
2022/02/27 06:11:50;;;;;;;11.17;5.90;;;-0.60;99.90;;;;;;6129308;23;20668;-86
2022/02/27 06:14:15;;;;;;;11.67;5.20;;;-0.50;99.90;;;;;;6128733;23;20450;-86
2022/02/27 06:16:41;;;;;;;8.57;5.10;;;-0.50;99.90;;;;;;6130902;23;20688;-87
2022/02/27 06:19:07;;;;;;;9.77;5.00;;;-0.50;99.90;;;;;;6130831;23;20208;-88
2022/02/27 06:21:32;;;;;;;7.97;5.70;;;-0.50;99.90;;;;;;6158559;23;20497;-86
2022/02/27 06:23:58;;;;;;;8.83;5.00;;;-0.50;99.90;;;;;;6132363;23;20478;-88
2022/02/27 06:26:24;;;;;;;8.67;4.50;;;-0.50;99.90;;;;;;6134972;23;20525;-87
2022/02/27 06:28:52;;;;;;;10.03;5.00;;;-0.50;99.90;;;;;;6132154;23;20160;-87
2022/02/27 06:31:21;;;;;;;8.90;5.80;;;-0.40;99.90;;;;;;6131947;23;20471;-86
2022/02/27 06:33:46;;;;;;;8.63;5.40;;;-0.40;99.90;;;;;;6132253;23;20984;-87
2022/02/27 06:36:12;;;;;;;10.63;6.90;;;-0.40;99.90;;;;;;6132154;23;20654;-89
2022/02/27 06:38:37;;;;;;;8.93;5.23;;;-0.30;99.90;;;;;;6131734;23;20587;-87
2022/02/27 06:41:03;;;;;;;9.50;6.13;;;-0.20;99.90;;;;;;6133545;23;20160;-86
2022/02/27 06:43:32;;;;;;;8.77;6.30;;;-0.20;99.90;;;;;;6131455;23;20160;-87
2022/02/27 06:46:05;;;;;;;6.90;4.97;;;-0.20;99.90;;;;;;6133000;23;20157;-87
2022/02/27 06:48:34;;;;;;;10.37;5.50;;;-0.10;99.90;;;;;;6158765;23;20380;-87
2022/02/27 06:51:00;;;;;;;9.80;6.23;;;0.00;99.90;;;;;;6131965;23;20388;-87
2022/02/27 06:53:25;;;;;;;8.90;6.50;;;0.10;99.90;;;;;;6131947;23;20435;-89
2022/02/27 06:55:51;;;;;;;8.00;6.10;;;0.10;99.90;;;;;;6140259;23;20395;-88
2022/02/27 06:58:18;;;;;;;12.03;5.93;;;0.20;99.90;;;;;;6142878;23;20227;-87
2022/02/27 07:00:44;;;;;;;10.60;5.53;;;0.40;99.90;;;;;;6133087;23;20792;-87
2022/02/27 07:03:10;;;;;;;11.10;6.40;;;0.50;99.90;;;;;;6132258;23;20432;-87
2022/02/27 07:05:38;;;;;;;7.60;5.70;;;0.50;99.90;;;;;;6130740;23;20392;-88
2022/02/27 07:08:04;;;;;;;12.83;6.13;;;0.60;99.90;;;;;;6131315;23;20550;-88
2022/02/27 07:10:33;;;;;;;9.63;6.53;;;0.60;99.90;;;;;;6130518;23;20431;-88
2022/02/27 07:12:58;;;;;;;11.43;6.87;;;0.70;99.90;;;;;;6130198;23;20435;-90
2022/02/27 07:15:26;;;;;;;7.63;6.03;;;0.90;99.90;;;;;;6132807;23;20400;-90
2022/02/27 07:17:52;;;;;;;10.00;6.20;;;0.90;99.90;;;;;;6134398;23;20897;-89
2022/02/27 07:20:17;;;;;;;10.83;6.70;;;0.90;99.90;;;;;;6132059;23;20518;-88
2022/02/27 07:22:45;;;;;;;8.80;6.70;;;1.10;99.90;;;;;;6133356;23;20164;-88
2022/02/27 07:25:14;;;;;;;9.47;6.43;;;1.20;99.90;;;;;;6133233;23;20291;-90
2022/02/27 07:27:39;;;;;;;9.60;6.50;;;1.20;99.90;;;;;;6130348;23;20407;-86
2022/02/27 07:30:11;;;;;;;10.20;6.83;;;1.30;99.90;;;;;;6128755;23;20438;-87
2022/02/27 07:32:39;;;;;;;11.73;7.20;;;1.40;99.90;;;;;;6129652;23;20168;-86
2022/02/27 07:35:05;;;;;;;9.43;6.50;;;1.40;99.90;;;;;;6131320;23;20783;-86
2022/02/27 07:37:31;;;;;;;14.10;8.30;;;1.50;99.90;;;;;;6130585;23;20657;-86
2022/02/27 07:39:57;;;;;;;11.60;7.00;;;1.60;99.90;;;;;;6136788;23;20730;-86
2022/02/27 07:42:39;;;;;;;9.63;7.90;;;1.70;99.90;;;;;;6141326;23;20188;-86
2022/02/27 07:45:06;;;;;;;10.20;7.50;;;1.90;99.90;;;;;;6129932;23;20158;-87
2022/02/27 07:47:43;;;;;;;12.00;6.80;;;1.90;99.90;;;;;;6130971;23;20391;-88
2022/02/27 07:50:10;;;;;;;10.13;7.30;;;2.00;99.90;;;;;;6152591;23;20402;-88
2022/02/27 07:52:54;;;;;;;10.10;7.40;;;2.20;99.90;;;;;;6161144;23;20475;-88
2022/02/27 07:55:20;;;;;;;13.03;7.83;;;2.40;99.90;;;;;;6131536;23;20510;-88
2022/02/27 07:57:46;;;;;;;10.17;7.50;;;2.50;99.90;;;;;;6129474;23;20444;-88
2022/02/27 08:00:12;;;;;;;17.27;6.90;;;2.60;99.90;;;;;;6126566;23;20791;-88
2022/02/27 08:02:38;;;;;;;11.90;7.17;;;2.60;99.90;;;;;;6131308;23;20168;-90
2022/02/27 08:05:04;;;;;;;10.77;6.87;;;2.60;99.90;;;;;;6132437;23;20396;-89
2022/02/27 08:07:34;;;;;;;13.07;7.30;;;2.70;99.90;;;;;;6127144;23;20403;-90
2022/02/27 08:10:06;;;;;;;12.80;7.80;;;2.80;99.90;;;;;;6135889;23;20409;-90
2022/02/27 08:12:45;;;;;;;9.87;7.17;;;3.00;99.90;;;;;;6136624;23;20700;-91
2022/02/27 08:15:16;;;;;;;9.57;7.00;;;3.10;99.90;;;;;;6138245;23;20461;-90
2022/02/27 08:17:45;;;;;;;9.37;7.20;;;3.30;99.90;;;;;;6128229;23;20394;-90
2022/02/27 08:20:11;;;;;;;8.90;7.00;;;3.30;99.90;;;;;;6129283;23;20782;-91
2022/02/27 08:22:37;;;;;;;9.93;7.17;;;3.50;99.90;;;;;;6135143;23;20160;-91
2022/02/27 08:25:04;;;;;;;9.30;7.00;;;3.70;99.90;;;;;;6134949;23;20395;-91
2022/02/27 08:27:32;;;;;;;9.90;6.63;;;3.90;99.90;;;;;;6134641;23;20161;-91
2022/02/27 08:29:58;;;;;;;9.63;7.13;;;4.00;99.90;;;;;;6135146;23;20800;-90
2022/02/27 08:32:23;;;;;;;8.90;6.57;;;4.10;99.90;;;;;;6134618;23;20906;-90
2022/02/27 08:34:49;;;;;;;10.73;7.10;;;4.20;99.90;;;;;;6133845;23;20610;-91
2022/02/27 08:37:15;;;;;;;11.20;6.90;;;4.50;99.90;;;;;;6133647;23;20168;-90
2022/02/27 08:39:40;;;;;;;10.70;7.00;;;4.60;99.90;;;;;;6133900;23;20686;-90
2022/02/27 08:42:09;;;;;;;9.20;6.87;;;4.80;99.90;;;;;;6135817;23;20182;-89
2022/02/27 08:44:44;;;;;;;8.93;5.40;;;4.80;99.90;;;;;;6132781;23;20165;-90
2022/02/27 08:47:21;;;;;;;9.20;5.00;;;5.00;99.90;;;;;;6133926;23;20468;-91
2022/02/27 08:49:49;;;;;;;6.33;4.53;;;5.20;99.90;;;;;;6135388;23;20405;-91
2022/02/27 08:52:21;;;;;;;7.87;5.07;;;5.10;99.90;;;;;;6136197;23;20386;-90
2022/02/27 08:54:55;;;;;;;8.43;4.80;;;5.30;99.90;;;;;;6134615;23;20991;-90
2022/02/27 08:57:20;;;;;;;6.70;4.77;;;5.20;99.90;;;;;;6131965;23;20513;-90
2022/02/27 08:59:46;;;;;;;7.87;4.47;;;5.20;99.90;;;;;;6137958;23;20979;-90
2022/02/27 09:02:11;;;;;;;8.70;5.20;;;5.50;99.90;;;;;;6134052;23;20219;-89
2022/02/27 09:04:37;;;;;;;7.10;4.37;;;5.90;99.90;;;;;;6134463;23;20257;-90
2022/02/27 09:07:03;;;;;;;7.70;4.63;;;6.20;99.90;;;;;;6134643;23;20191;-90
2022/02/27 09:09:29;;;;;;;7.00;4.27;;;6.30;99.60;;;;;;6135317;23;20186;-90
2022/02/27 09:11:57;;;;;;;7.30;4.47;;;6.20;99.90;;;;;;6135537;23;20425;-90
2022/02/27 09:14:27;;;;;;;6.50;4.17;;;6.30;99.00;;;;;;6134782;23;20268;-91
2022/02/27 09:16:53;;;;;;;5.13;3.90;;;6.20;98.40;;;;;;6133247;23;20888;-91
2022/02/27 09:19:21;;;;;;;4.63;4.20;;;6.10;99.20;;;;;;6131956;23;20857;-89
2022/02/27 09:21:58;;;;;;;7.17;4.60;;;6.20;98.80;;;;;;6134317;23;20193;-89
2022/02/27 09:24:44;;;;;;;5.50;4.30;;;6.50;98.70;;;;;;6159972;23;20387;-89
2022/02/27 09:27:10;;;;;;;6.00;4.20;;;6.70;98.30;;;;;;6135265;23;20400;-90
2022/02/27 09:29:36;;;;;;;7.47;4.20;;;6.90;98.20;;;;;;6137559;23;20330;-91
2022/02/27 09:32:02;;;;;;;7.10;4.37;;;7.00;97.70;;;;;;6131788;23;20174;-90
2022/02/27 09:34:28;;;;;;;9.67;4.57;;;6.90;97.30;;;;;;6131227;23;20444;-91
2022/02/27 09:36:54;;;;;;;5.10;3.67;;;6.60;97.10;;;;;;6132507;23;20206;-92
2022/02/27 09:39:21;;;;;;;6.40;4.10;;;6.60;97.20;;;;;;6130498;23;20203;-91
2022/02/27 09:41:50;;;;;;;5.37;4.87;;;6.50;97.40;;;;;;6128792;23;20826;-91
2022/02/27 09:44:24;;;;;;;4.37;3.60;;;6.90;97.00;;;;;;6134066;23;20447;-91
2022/02/27 09:46:50;;;;;;;6.87;3.87;;;7.10;95.60;;;;;;6134855;23;20388;-90
2022/02/27 09:49:16;;;;;;;5.00;3.77;;;6.80;95.20;;;;;;6127619;23;20457;-92
2022/02/27 09:51:42;;;;;;;4.80;4.40;;;6.70;95.20;;;;;;6130401;23;20445;-91
2022/02/27 09:54:13;;;;;;;4.07;3.63;;;6.70;95.70;;;;;;6130597;23;20436;-92
2022/02/27 09:56:42;;;;;;;6.17;4.00;;;7.10;94.50;;;;;;6131142;23;20380;-91
2022/02/27 09:59:24;;;;;;;4.37;3.97;;;7.50;94.10;;;;;;6161902;23;20394;-93
2022/02/27 10:02:04;;;;;;;4.53;3.73;;;7.70;93.10;;;;;;6132215;23;20392;-92
2022/02/27 10:04:48;;;;;;;6.37;3.70;;;7.70;94.50;;;;;;6134827;23;20396;-93
2022/02/27 10:07:29;;;;;;;4.67;3.50;;;7.60;93.00;;;;;;6131585;23;20407;-91
2022/02/27 10:10:06;;;;;;;4.33;3.77;;;7.70;92.00;;;;;;6133541;23;20427;-91
2022/02/27 10:12:32;;;;;;;4.23;3.60;;;7.50;92.60;;;;;;6131690;23;20486;-92
2022/02/27 10:15:19;;;;;;;4.50;3.70;;;7.60;93.20;;;;;;6132691;23;20434;-92
2022/02/27 10:17:46;;;;;;;4.20;3.50;;;7.80;92.10;;;;;;6134683;23;20391;-91
2022/02/27 10:20:14;;;;;;;6.63;3.53;;;7.90;91.50;;;;;;6130312;23;21042;-91
2022/02/27 10:22:44;;;;;;;5.30;2.83;;;8.10;91.00;;;;;;6133105;23;20442;-92
2022/02/27 10:25:28;;;;;;;3.33;2.87;;;8.30;89.00;;;;;;6107464;23;20936;-92
2022/02/27 10:28:00;;;;;;;2.90;2.70;;;8.40;85.60;;;;;;6130991;23;20390;-92
2022/02/27 10:30:31;;;;;;;5.53;2.47;;;8.20;80.40;;;;;;6135714;23;20396;-91
2022/02/27 10:33:02;;;;;;;2.20;1.83;;;7.80;81.20;;;;;;6135745;23;20478;-92
2022/02/27 10:35:47;;;;;;;2.67;2.20;;;7.70;81.70;;;;;;6135317;23;20897;-94
2022/02/27 10:38:45;;;;;;;2.87;2.57;;;7.70;79.10;;;;;;6133795;23;20732;-91
2022/02/27 10:41:14;;;;;;;2.83;2.40;;;7.90;82.20;;;;;;6134723;23;20392;-92
2022/02/27 10:43:49;;;;;;;2.20;2.00;;;8.40;82.40;;;;;;6133628;23;20393;-92
2022/02/27 10:46:18;;;;;;;2.53;2.20;;;8.40;77.60;;;;;;6133418;23;20992;-92
2022/02/27 10:48:51;;;;;;;2.43;2.23;;;8.70;77.50;;;;;;6158501;23;20460;-93
2022/02/27 10:51:17;;;;;;;2.87;2.60;;;9.20;78.40;;;;;;6135680;23;20976;-92
2022/02/27 10:53:46;;;;;;;6.27;2.77;;;9.40;71.70;;;;;;6137605;23;20439;-92
2022/02/27 10:56:25;;;;;;;3.40;2.70;;;9.00;70.20;;;;;;6137085;23;20183;-91
2022/02/27 10:58:51;;;;;;;3.13;2.50;;;8.80;73.50;;;;;;6139694;23;20405;-91
2022/02/27 11:01:31;;;;;;;2.97;2.77;;;8.70;73.60;;;;;;6132172;23;20478;-91
2022/02/27 11:03:58;;;;;;;3.43;3.10;;;9.00;72.70;;;;;;6103739;23;20403;-92
2022/02/27 11:06:27;;;;;;;3.10;2.70;;;8.80;72.70;;;;;;6133647;23;20468;-92
2022/02/27 11:08:53;;;;;;;3.40;2.40;;;8.50;72.00;;;;;;6133301;23;20429;-91
2022/02/27 11:11:19;;;;;;;4.43;2.90;;;8.70;75.20;;;;;;6134157;23;20466;-91
2022/02/27 11:13:46;;;;;;;3.50;2.73;;;8.90;75.80;;;;;;6128347;23;20442;-92
2022/02/27 11:16:16;;;;;;;3.63;3.27;;;9.20;74.50;;;;;;6133717;23;20705;-91
2022/02/27 11:18:42;;;;;;;3.40;2.80;;;9.40;72.00;;;;;;6128339;23;20440;-91
2022/02/27 11:21:09;;;;;;;3.87;3.50;;;9.40;76.80;;;;;;6131516;23;20390;-91
2022/02/27 11:23:43;;;;;;;4.07;3.67;;;9.80;75.10;;;;;;6129249;23;20400;-91
2022/02/27 11:26:10;;;;;;;4.00;3.13;;;9.70;74.40;;;;;;6128763;23;20380;-91
2022/02/27 11:28:40;;;;;;;3.77;3.43;;;9.30;74.70;;;;;;6129706;23;20411;-92
2022/02/27 11:31:06;;;;;;;4.40;3.00;;;9.10;76.90;;;;;;6133236;23;20451;-92
2022/02/27 11:33:48;;;;;;;4.57;3.33;;;9.20;77.00;;;;;;6130887;23;20871;-91
2022/02/27 11:36:22;;;;;;;6.20;3.87;;;9.40;76.20;;;;;;6131250;23;20410;-92
2022/02/27 11:39:04;;;;;;;5.10;3.53;;;9.20;75.00;;;;;;6128800;23;20519;-91
2022/02/27 11:41:47;;;;;;;3.43;3.10;;;9.20;75.90;;;;;;6129841;23;20383;-91
2022/02/27 11:44:14;;;;;;;3.50;3.20;;;9.20;72.50;;;;;;6131552;23;20395;-92
2022/02/27 11:46:45;;;;;;;4.10;3.70;;;9.00;73.70;;;;;;6136654;23;20607;-91
2022/02/27 11:49:23;;;;;;;5.23;3.83;;;9.10;75.30;;;;;;6130490;23;20420;-91
2022/02/27 11:52:12;;;;;;;3.50;3.20;;;9.50;78.40;;;;;;6128052;23;20475;-91
2022/02/27 11:54:38;;;;;;;3.57;3.20;;;10.20;70.00;;;;;;6156712;23;20446;-91
2022/02/27 11:57:07;;;;;;;3.97;3.37;;;9.90;68.40;;;;;;6138564;23;20399;-91
2022/02/27 12:00:09;;;;;;;4.93;3.70;;;9.60;72.70;;;;;;6130209;23;20392;-91
2022/02/27 12:02:44;;;;;;;4.40;3.37;;;9.80;73.10;;;;;;6092850;23;20402;-93
2022/02/27 12:05:18;;;;;;;4.10;3.27;;;10.20;72.40;;;;;;6127604;23;20710;-90
2022/02/27 12:08:08;;;;;;;3.77;3.23;;;10.40;71.40;;;;;;6128345;23;20390;-90
2022/02/27 12:10:38;;;;;;;4.63;4.23;;;10.80;67.90;;;;;;6103688;23;20392;-91
2022/02/27 12:13:27;;;;;;;4.60;2.97;;;10.00;70.80;;;;;;6128011;23;20431;-92
2022/02/27 12:16:12;;;;;;;3.93;3.37;;;10.10;71.60;;;;;;6130895;23;20388;-91
2022/02/27 12:18:50;;;;;;;3.80;3.40;;;10.40;69.50;;;;;;6128603;23;20495;-91
2022/02/27 12:21:43;;;;;;;3.80;3.40;;;10.90;67.90;;;;;;6127140;23;20457;-92
2022/02/27 12:24:11;;;;;;;3.77;3.47;;;11.20;67.70;;;;;;6155584;23;20387;-91
2022/02/27 12:26:37;;;;;;;5.90;3.40;;;11.20;70.90;;;;;;6129739;23;20388;-90
2022/02/27 12:29:04;;;;;;;3.83;3.43;;;11.00;66.00;;;;;;6129525;23;20422;-91
2022/02/27 12:31:32;;;;;;;4.50;3.07;;;10.70;66.40;;;;;;6131881;23;20164;-91
2022/02/27 12:34:08;;;;;;;3.87;3.57;;;10.90;62.80;;;;;;6131612;23;20940;-93
2022/02/27 12:36:38;;;;;;;3.23;3.00;;;10.90;65.50;;;;;;6131898;23;20379;-91
2022/02/27 12:39:33;;;;;;;6.23;3.57;;;11.10;67.10;;;;;;6135659;23;20430;-92
2022/02/27 12:42:00;;;;;;;5.00;3.50;;;11.20;68.70;;;;;;6139293;23;20446;-92
2022/02/27 12:44:33;;;;;;;3.50;3.20;;;11.10;67.10;;;;;;6134283;23;20798;-92
2022/02/27 12:46:59;;;;;;;4.20;3.43;;;11.10;71.20;;;;;;6129384;23;20690;-92
2022/02/27 12:52:17;;;;;;;3.93;3.53;;;10.50;72.70;;;;;;6155677;23;20378;-92
2022/02/27 12:54:49;;;;;;;4.10;3.70;;;10.70;70.10;;;;;;6134364;23;20453;-91
2022/02/27 12:57:16;;;;;;;4.57;3.67;;;10.50;70.30;;;;;;6130051;23;20426;-91
2022/02/27 12:59:44;;;;;;;3.90;3.60;;;10.50;70.40;;;;;;6129412;23;20761;-91
2022/02/27 13:02:21;;;;;;;3.70;3.20;;;10.30;69.00;;;;;;6128877;23;20696;-91